Neskowin, OR (97149)

8:47 PM PST on February 11, 2016 (GMT -0800)
Nestucca Sea Ranch | | Change Station
CLOSE
Current Station
Personal Weather Station
Location: Cloverdale, OR
Elevation: 75 ft
Nearby Weather Stations

Elev 75 ft 45.16 °N, 123.97 °W | Updated 6 seconds ago

Overcast
Overcast
52.9 °F
Feels Like 52.9 °F
N
16.1
Wind Variable Wind from SE
Gusts 19.9 mph

Today
High -- | Low -- °F
--% Chance of Precip.
Yesterday
High -- | Low -- °F
Precip. -- in
Pressure 30.09 in
Visibility 10.0 miles
Clouds Mostly Cloudy 3000 ft
Mostly Cloudy 3500 ft
Overcast 8500 ft
Dew Point 51 °F
Humidity 94%
Rainfall 0.14 in
Snow Depth Not available.
7:23 AM 5:37 PM
Waxing Crescent, 17% visible
METAR KTMK 120435Z AUTO 00000KT 10SM -RA BKN030 BKN035 OVC085 12/12 A3009 RMK AO2
Pressure 30.09 in
Visibility 10.0 miles
Clouds Mostly Cloudy 3000 ft
Mostly Cloudy 3500 ft
Overcast 8500 ft
Dew Point 51 °F
Humidity 94%
Rainfall 0.14 in
Snow Depth Not available.
7:23 AM 5:37 PM
Waxing Crescent, 17% visible
METAR KTMK 120435Z AUTO 00000KT 10SM -RA BKN030 BKN035 OVC085 12/12 A3009 RMK AO2

10-Day Weather Forecast

Almanac

Astronomy

Feb. 11, 2016 Rise Set
Actual Time
Civil Twilight
Nautical Twilight
Astronomical Twilight
Moon
Length of Visible Light
Length of Day
Tomorrow will be .
, % of the Moon is Illuminated

Today's Extremes

State Highs State Lows

Community

WunderPhotos

Upload Photos

1,892,268 photos uploaded!

WunderBlog® & News

Nearby

Air Quality

  Air Quality AQ Index Pollutant
Not available.

Snow Depth

Station Depth Elevation

Earthquake Activity

City Distance Mag. Time & Date
Minimum magnitude displayed is 2.5.

Coastal Water Temperatures

Place Temperature

Stations

Nearby Weather Stations

Station Location Temp. Windchill Dew Point Humidity Wind Precip. Elev Updated Type
                   

Watches & Warnings

There are currently no watches in effect.